DLH112P EDDF-EDDM
Flight info
| Callsign | DLH112P |
|---|---|
| Flight time | 0h 31m |
| Altitude | 27000 |
| Route | CINDY8S/18 CINDY Z74 HAREM T104 ROKIL ROKIL1A |
| Aircraft | A320/M-SDE3FGHIRWY/LB1 |
Departure
| Time | 2026-04-18 10:40 |
|---|---|
| Airport | Frankfurt Main Airport (EDDF) |
Arrival
| Time | 2026-04-18 11:12 |
|---|---|
| Airport | Munich Airport (EDDM) |
| Time | Latitude | Longitude | Altitude | Speed | Heading |
|---|---|---|---|---|---|
| 2026-04-18 10:22 | 50.04043 | 8.55546 | 362 ft | 0 kts | 160° |
| 2026-04-18 10:34 | 50.04019 | 8.55559 | 359 ft | 5 kts | 160° |
| 2026-04-18 10:34 | 50.03986 | 8.55576 | 357 ft | 6 kts | 165° |
| 2026-04-18 10:34 | 50.03948 | 8.55531 | 358 ft | 11 kts | 246° |
| 2026-04-18 10:35 | 50.03914 | 8.55382 | 355 ft | 16 kts | 249° |
| 2026-04-18 10:35 | 50.03872 | 8.55205 | 354 ft | 17 kts | 249° |
| 2026-04-18 10:35 | 50.03828 | 8.55023 | 351 ft | 18 kts | 250° |
| 2026-04-18 10:35 | 50.03782 | 8.54828 | 350 ft | 18 kts | 250° |
| 2026-04-18 10:36 | 50.03736 | 8.54639 | 357 ft | 20 kts | 248° |
| 2026-04-18 10:36 | 50.03691 | 8.54450 | 355 ft | 16 kts | 249° |
| 2026-04-18 10:36 | 50.03650 | 8.54281 | 352 ft | 18 kts | 250° |
| 2026-04-18 10:36 | 50.03601 | 8.54075 | 354 ft | 22 kts | 250° |
| 2026-04-18 10:37 | 50.03545 | 8.53840 | 336 ft | 22 kts | 250° |
| 2026-04-18 10:37 | 50.03496 | 8.53637 | 337 ft | 20 kts | 249° |
| 2026-04-18 10:37 | 50.03442 | 8.53408 | 331 ft | 24 kts | 250° |
| 2026-04-18 10:37 | 50.03386 | 8.53177 | 332 ft | 23 kts | 250° |
| 2026-04-18 10:38 | 50.03342 | 8.52995 | 345 ft | 16 kts | 249° |
| 2026-04-18 10:38 | 50.03309 | 8.52856 | 351 ft | 12 kts | 250° |
| 2026-04-18 10:38 | 50.03286 | 8.52758 | 350 ft | 0 kts | 250° |
| 2026-04-18 10:39 | 50.03278 | 8.52726 | 348 ft | 13 kts | 249° |
| 2026-04-18 10:39 | 50.03166 | 8.52600 | 345 ft | 25 kts | 187° |
| 2026-04-18 10:40 | 50.02972 | 8.52597 | 342 ft | 32 kts | 180° |
| 2026-04-18 10:40 | 50.02496 | 8.52602 | 352 ft | 113 kts | 180° |
| 2026-04-18 10:40 | 50.01450 | 8.52618 | 551 ft | 171 kts | 179° |
| 2026-04-18 10:40 | 50.00208 | 8.52630 | 1425 ft | 185 kts | 180° |
| 2026-04-18 10:41 | 49.98879 | 8.52630 | 2429 ft | 196 kts | 180° |
| 2026-04-18 10:41 | 49.97469 | 8.52658 | 3386 ft | 204 kts | 176° |
| 2026-04-18 10:41 | 49.96195 | 8.53488 | 4198 ft | 204 kts | 136° |
| 2026-04-18 10:41 | 49.95443 | 8.55433 | 4672 ft | 221 kts | 116° |
| 2026-04-18 10:42 | 49.94744 | 8.57656 | 5170 ft | 236 kts | 118° |
| 2026-04-18 10:42 | 49.94120 | 8.60033 | 6028 ft | 242 kts | 103° |
| 2026-04-18 10:42 | 49.93947 | 8.62724 | 6650 ft | 263 kts | 95° |
| 2026-04-18 10:42 | 49.93825 | 8.65644 | 7127 ft | 287 kts | 98° |
| 2026-04-18 10:43 | 49.93249 | 8.68693 | 7759 ft | 303 kts | 117° |
| 2026-04-18 10:43 | 49.91996 | 8.71377 | 8473 ft | 313 kts | 137° |
| 2026-04-18 10:43 | 49.90253 | 8.73447 | 9364 ft | 319 kts | 145° |
| 2026-04-18 10:43 | 49.88569 | 8.75734 | 10245 ft | 326 kts | 132° |
| 2026-04-18 10:44 | 49.87275 | 8.78646 | 11057 ft | 333 kts | 120° |
| 2026-04-18 10:44 | 49.86134 | 8.81803 | 11907 ft | 338 kts | 120° |
| 2026-04-18 10:44 | 49.84981 | 8.85004 | 12730 ft | 343 kts | 119° |
| 2026-04-18 10:44 | 49.83809 | 8.88265 | 13536 ft | 349 kts | 119° |
| 2026-04-18 10:45 | 49.82616 | 8.91580 | 14292 ft | 355 kts | 119° |
| 2026-04-18 10:45 | 49.81401 | 8.94945 | 15000 ft | 360 kts | 119° |
| 2026-04-18 10:45 | 49.80184 | 8.98300 | 15696 ft | 365 kts | 119° |
| 2026-04-18 10:45 | 49.78929 | 9.01741 | 16426 ft | 369 kts | 120° |
| 2026-04-18 10:46 | 49.77637 | 9.05275 | 16699 ft | 387 kts | 120° |
| 2026-04-18 10:46 | 49.76404 | 9.09036 | 17165 ft | 397 kts | 111° |
| 2026-04-18 10:46 | 49.75580 | 9.13147 | 17784 ft | 402 kts | 103° |
| 2026-04-18 10:46 | 49.74712 | 9.17283 | 18408 ft | 408 kts | 114° |
| 2026-04-18 10:47 | 49.73306 | 9.21100 | 18969 ft | 412 kts | 126° |
| 2026-04-18 10:47 | 49.71458 | 9.24505 | 19526 ft | 415 kts | 132° |
| 2026-04-18 10:47 | 49.69555 | 9.27802 | 20098 ft | 419 kts | 132° |
| 2026-04-18 10:47 | 49.67619 | 9.31189 | 20664 ft | 422 kts | 131° |
| 2026-04-18 10:48 | 49.65682 | 9.34606 | 21211 ft | 426 kts | 131° |
| 2026-04-18 10:48 | 49.63729 | 9.38068 | 21748 ft | 429 kts | 131° |
| 2026-04-18 10:48 | 49.61760 | 9.41557 | 22280 ft | 433 kts | 131° |
| 2026-04-18 10:48 | 49.59771 | 9.45072 | 22819 ft | 436 kts | 131° |
| 2026-04-18 10:49 | 49.57762 | 9.48608 | 23333 ft | 440 kts | 131° |
| 2026-04-18 10:49 | 49.55740 | 9.52162 | 23836 ft | 444 kts | 131° |
| 2026-04-18 10:49 | 49.53699 | 9.55740 | 24355 ft | 444 kts | 131° |
| 2026-04-18 10:49 | 49.51666 | 9.59296 | 24952 ft | 442 kts | 131° |
| 2026-04-18 10:50 | 49.49659 | 9.62797 | 25519 ft | 441 kts | 131° |
| 2026-04-18 10:50 | 49.47627 | 9.66338 | 26090 ft | 441 kts | 131° |
| 2026-04-18 10:50 | 49.45601 | 9.69869 | 26670 ft | 440 kts | 131° |
| 2026-04-18 10:50 | 49.43565 | 9.73380 | 27072 ft | 440 kts | 132° |
| 2026-04-18 10:51 | 49.41486 | 9.76842 | 27177 ft | 445 kts | 133° |
| 2026-04-18 10:51 | 49.39328 | 9.80345 | 27192 ft | 458 kts | 134° |
| 2026-04-18 10:51 | 49.37093 | 9.83930 | 27192 ft | 471 kts | 134° |
| 2026-04-18 10:51 | 49.34801 | 9.87595 | 27194 ft | 482 kts | 134° |
| 2026-04-18 10:52 | 49.32464 | 9.91343 | 27190 ft | 489 kts | 134° |
| 2026-04-18 10:52 | 49.30144 | 9.95079 | 27191 ft | 492 kts | 133° |
| 2026-04-18 10:52 | 49.27792 | 9.98882 | 27190 ft | 492 kts | 133° |
| 2026-04-18 10:52 | 49.25438 | 10.02692 | 27187 ft | 493 kts | 133° |
| 2026-04-18 10:53 | 49.23081 | 10.06509 | 27190 ft | 493 kts | 133° |
| 2026-04-18 10:53 | 49.20728 | 10.10319 | 27187 ft | 493 kts | 133° |
| 2026-04-18 10:53 | 49.18378 | 10.14116 | 27137 ft | 486 kts | 133° |
| 2026-04-18 10:53 | 49.16090 | 10.17794 | 26882 ft | 470 kts | 134° |
| 2026-04-18 10:54 | 49.13859 | 10.21365 | 26341 ft | 461 kts | 134° |
| 2026-04-18 10:54 | 49.11682 | 10.24843 | 25724 ft | 456 kts | 134° |
| 2026-04-18 10:54 | 49.09504 | 10.28324 | 25170 ft | 450 kts | 133° |
| 2026-04-18 10:54 | 49.07358 | 10.31751 | 24660 ft | 444 kts | 133° |
| 2026-04-18 10:55 | 49.05236 | 10.35135 | 24091 ft | 439 kts | 134° |
| 2026-04-18 10:55 | 49.03134 | 10.38478 | 23476 ft | 435 kts | 133° |
| 2026-04-18 10:55 | 49.01048 | 10.41793 | 22839 ft | 431 kts | 133° |
| 2026-04-18 10:55 | 48.98985 | 10.45071 | 22250 ft | 427 kts | 133° |
| 2026-04-18 10:56 | 48.96948 | 10.48309 | 21802 ft | 419 kts | 133° |
| 2026-04-18 10:56 | 48.94944 | 10.51489 | 21284 ft | 415 kts | 134° |
| 2026-04-18 10:56 | 48.92972 | 10.54611 | 20440 ft | 418 kts | 134° |
| 2026-04-18 10:56 | 48.90926 | 10.57843 | 19301 ft | 430 kts | 134° |
| 2026-04-18 10:57 | 48.88824 | 10.61164 | 18068 ft | 442 kts | 134° |
| 2026-04-18 10:57 | 48.86677 | 10.64552 | 17007 ft | 446 kts | 134° |
| 2026-04-18 10:57 | 48.84533 | 10.67930 | 16236 ft | 442 kts | 134° |
| 2026-04-18 10:57 | 48.82409 | 10.71272 | 15544 ft | 437 kts | 134° |
| 2026-04-18 10:58 | 48.80311 | 10.74570 | 14876 ft | 432 kts | 134° |
| 2026-04-18 10:58 | 48.78233 | 10.77831 | 14216 ft | 427 kts | 134° |
| 2026-04-18 10:58 | 48.76202 | 10.81013 | 14016 ft | 411 kts | 134° |
| 2026-04-18 10:58 | 48.74287 | 10.84011 | 13876 ft | 389 kts | 134° |
| 2026-04-18 10:59 | 48.72477 | 10.86837 | 13701 ft | 360 kts | 134° |
| 2026-04-18 10:59 | 48.70776 | 10.89489 | 13163 ft | 345 kts | 134° |
| 2026-04-18 10:59 | 48.69124 | 10.92067 | 12440 ft | 338 kts | 134° |
| 2026-04-18 10:59 | 48.67504 | 10.94599 | 11737 ft | 332 kts | 133° |
| 2026-04-18 11:00 | 48.65907 | 10.97098 | 11412 ft | 327 kts | 133° |
| 2026-04-18 11:00 | 48.64335 | 10.99547 | 11074 ft | 323 kts | 134° |
| 2026-04-18 11:00 | 48.62772 | 11.01968 | 10707 ft | 321 kts | 133° |
| 2026-04-18 11:00 | 48.61217 | 11.04370 | 10342 ft | 318 kts | 133° |
| 2026-04-18 11:01 | 48.59678 | 11.06751 | 9966 ft | 316 kts | 133° |
| 2026-04-18 11:01 | 48.58166 | 11.09094 | 9795 ft | 306 kts | 133° |
| 2026-04-18 11:01 | 48.56727 | 11.11325 | 9647 ft | 296 kts | 133° |
| 2026-04-18 11:02 | 48.53908 | 11.15685 | 9057 ft | 286 kts | 131° |
| 2026-04-18 11:02 | 48.52762 | 11.18101 | 8750 ft | 281 kts | 115° |
| 2026-04-18 11:02 | 48.52115 | 11.20851 | 8402 ft | 277 kts | 100° |
| 2026-04-18 11:02 | 48.51991 | 11.23727 | 8073 ft | 273 kts | 84° |
| 2026-04-18 11:03 | 48.52322 | 11.26527 | 7698 ft | 272 kts | 77° |
| 2026-04-18 11:03 | 48.52728 | 11.29308 | 7338 ft | 270 kts | 78° |
| 2026-04-18 11:03 | 48.53080 | 11.32076 | 6999 ft | 268 kts | 86° |
| 2026-04-18 11:03 | 48.52880 | 11.34814 | 6641 ft | 266 kts | 100° |
| 2026-04-18 11:04 | 48.52390 | 11.37485 | 6261 ft | 264 kts | 117° |
| 2026-04-18 11:04 | 48.51184 | 11.39534 | 5903 ft | 264 kts | 146° |
| 2026-04-18 11:04 | 48.49479 | 11.40412 | 5697 ft | 258 kts | 175° |
| 2026-04-18 11:04 | 48.47711 | 11.40310 | 5557 ft | 250 kts | 184° |
| 2026-04-18 11:05 | 48.46013 | 11.40061 | 5434 ft | 242 kts | 185° |
| 2026-04-18 11:05 | 48.44361 | 11.39800 | 5285 ft | 235 kts | 185° |
| 2026-04-18 11:05 | 48.42752 | 11.39539 | 5156 ft | 230 kts | 185° |
| 2026-04-18 11:05 | 48.41184 | 11.39281 | 5033 ft | 224 kts | 183° |
| 2026-04-18 11:06 | 48.39652 | 11.39289 | 4893 ft | 218 kts | 175° |
| 2026-04-18 11:06 | 48.38157 | 11.39338 | 4725 ft | 214 kts | 170° |
| 2026-04-18 11:06 | 48.36829 | 11.40225 | 4591 ft | 208 kts | 135° |
| 2026-04-18 11:06 | 48.36019 | 11.41972 | 4461 ft | 202 kts | 117° |
| 2026-04-18 11:07 | 48.35396 | 11.43831 | 4343 ft | 202 kts | 115° |
| 2026-04-18 11:07 | 48.34799 | 11.45726 | 4220 ft | 199 kts | 115° |
| 2026-04-18 11:07 | 48.34210 | 11.47592 | 4098 ft | 197 kts | 115° |
| 2026-04-18 11:07 | 48.33868 | 11.49548 | 4010 ft | 196 kts | 81° |
| 2026-04-18 11:08 | 48.34280 | 11.51463 | 4001 ft | 193 kts | 71° |
| 2026-04-18 11:08 | 48.34469 | 11.53417 | 4032 ft | 189 kts | 84° |
| 2026-04-18 11:08 | 48.34605 | 11.55388 | 4001 ft | 189 kts | 84° |
| 2026-04-18 11:08 | 48.34754 | 11.57329 | 3957 ft | 184 kts | 83° |
| 2026-04-18 11:09 | 48.34905 | 11.59233 | 3747 ft | 187 kts | 83° |
| 2026-04-18 11:09 | 48.35058 | 11.61180 | 3522 ft | 187 kts | 82° |
| 2026-04-18 11:09 | 48.35212 | 11.63147 | 3274 ft | 193 kts | 81° |
| 2026-04-18 11:09 | 48.35366 | 11.65118 | 3002 ft | 184 kts | 84° |
| 2026-04-18 11:10 | 48.35513 | 11.66974 | 2784 ft | 171 kts | 83° |
| 2026-04-18 11:10 | 48.35642 | 11.68625 | 2556 ft | 149 kts | 83° |
| 2026-04-18 11:10 | 48.35754 | 11.70062 | 2378 ft | 141 kts | 82° |
| 2026-04-18 11:10 | 48.35865 | 11.71497 | 2197 ft | 136 kts | 82° |
| 2026-04-18 11:11 | 48.35974 | 11.72916 | 2009 ft | 137 kts | 82° |
| 2026-04-18 11:11 | 48.36084 | 11.74331 | 1839 ft | 135 kts | 81° |
| 2026-04-18 11:11 | 48.36197 | 11.75716 | 1660 ft | 135 kts | 81° |
| 2026-04-18 11:11 | 48.36301 | 11.77116 | 1481 ft | 131 kts | 80° |
| 2026-04-18 11:12 | 48.36390 | 11.78230 | 1466 ft | 69 kts | 83° |
| 2026-04-18 11:12 | 48.36414 | 11.78683 | 1470 ft | 37 kts | 98° |
| 2026-04-18 11:12 | 48.36353 | 11.78928 | 1470 ft | 14 kts | 114° |
| 2026-04-18 11:12 | 48.36313 | 11.79066 | 1461 ft | 15 kts | 113° |
| 2026-04-18 11:13 | 48.36280 | 11.79175 | 1468 ft | 10 kts | 114° |
| 2026-04-18 11:13 | 48.36253 | 11.79269 | 1464 ft | 11 kts | 112° |
| 2026-04-18 11:13 | 48.36226 | 11.79369 | 1464 ft | 10 kts | 112° |
| 2026-04-18 11:13 | 48.36194 | 11.79452 | 1463 ft | 9 kts | 139° |
| 2026-04-18 11:14 | 48.36143 | 11.79472 | 1462 ft | 7 kts | 173° |
| 2026-04-18 11:14 | 48.36098 | 11.79480 | 1463 ft | 6 kts | 173° |
| 2026-04-18 11:14 | 48.36060 | 11.79486 | 1461 ft | 5 kts | 174° |
| 2026-04-18 11:14 | 48.36029 | 11.79491 | 1468 ft | 4 kts | 174° |
| 2026-04-18 11:15 | 48.36022 | 11.79492 | 1468 ft | 0 kts | 174° |
| 2026-04-18 11:17 | 48.35982 | 11.79498 | 1464 ft | 12 kts | 174° |
| 2026-04-18 11:18 | 48.35906 | 11.79511 | 1469 ft | 9 kts | 172° |
| 2026-04-18 11:18 | 48.35847 | 11.79522 | 1467 ft | 8 kts | 174° |